sensor_id;sensor_type;location;lat;lon;timestamp;P1;durP1;ratioP1;P2;durP2;ratioP2
77726;SDS011;68312;53.502;10.030;2023-05-29T00:00:13;9.45;;;1.98;;
77726;SDS011;68312;53.502;10.030;2023-05-29T00:02:40;7.53;;;1.90;;
77726;SDS011;68312;53.502;10.030;2023-05-29T00:05:05;10.85;;;2.03;;
77726;SDS011;68312;53.502;10.030;2023-05-29T00:07:31;9.10;;;1.52;;
77726;SDS011;68312;53.502;10.030;2023-05-29T00:09:57;7.68;;;1.83;;
77726;SDS011;68312;53.502;10.030;2023-05-29T00:12:23;8.98;;;1.95;;
77726;SDS011;68312;53.502;10.030;2023-05-29T00:14:51;10.98;;;2.15;;
77726;SDS011;68312;53.502;10.030;2023-05-29T00:17:16;8.55;;;2.15;;
77726;SDS011;68312;53.502;10.030;2023-05-29T00:19:42;8.57;;;2.30;;
77726;SDS011;68312;53.502;10.030;2023-05-29T00:22:08;8.95;;;1.73;;
77726;SDS011;68312;53.502;10.030;2023-05-29T00:24:34;10.35;;;1.63;;
77726;SDS011;68312;53.502;10.030;2023-05-29T00:26:59;10.73;;;1.63;;
77726;SDS011;68312;53.502;10.030;2023-05-29T00:29:25;8.65;;;2.08;;
77726;SDS011;68312;53.502;10.030;2023-05-29T00:31:50;9.65;;;1.98;;
77726;SDS011;68312;53.502;10.030;2023-05-29T00:34:16;11.82;;;2.00;;
77726;SDS011;68312;53.502;10.030;2023-05-29T00:36:41;13.05;;;2.25;;
77726;SDS011;68312;53.502;10.030;2023-05-29T00:39:07;11.18;;;2.50;;
77726;SDS011;68312;53.502;10.030;2023-05-29T00:41:32;12.35;;;2.47;;
77726;SDS011;68312;53.502;10.030;2023-05-29T00:43:58;7.88;;;1.40;;
77726;SDS011;68312;53.502;10.030;2023-05-29T00:46:23;11.10;;;1.70;;
77726;SDS011;68312;53.502;10.030;2023-05-29T00:48:49;8.93;;;1.73;;
77726;SDS011;68312;53.502;10.030;2023-05-29T00:51:15;6.80;;;1.75;;
77726;SDS011;68312;53.502;10.030;2023-05-29T00:53:47;13.13;;;1.77;;
77726;SDS011;68312;53.502;10.030;2023-05-29T00:56:15;6.35;;;1.75;;
77726;SDS011;68312;53.502;10.030;2023-05-29T00:58:41;7.63;;;1.50;;
77726;SDS011;68312;53.502;10.030;2023-05-29T01:01:08;14.27;;;2.05;;
77726;SDS011;68312;53.502;10.030;2023-05-29T01:03:34;9.00;;;2.15;;
77726;SDS011;68312;53.502;10.030;2023-05-29T01:06:00;5.57;;;1.48;;
77726;SDS011;68312;53.502;10.030;2023-05-29T01:08:25;5.53;;;1.80;;
77726;SDS011;68312;53.502;10.030;2023-05-29T01:10:51;7.90;;;1.90;;
77726;SDS011;68312;53.502;10.030;2023-05-29T01:16:12;15.07;;;1.77;;
77726;SDS011;68312;53.502;10.030;2023-05-29T01:19:10;10.48;;;2.03;;
77726;SDS011;68312;53.502;10.030;2023-05-29T01:22:37;12.63;;;1.60;;
77726;SDS011;68312;53.502;10.030;2023-05-29T01:29:12;8.10;;;1.92;;
77726;SDS011;68312;53.502;10.030;2023-05-29T01:31:45;10.32;;;1.73;;
77726;SDS011;68312;53.502;10.030;2023-05-29T01:34:12;11.15;;;1.95;;
77726;SDS011;68312;53.502;10.030;2023-05-29T01:36:38;11.88;;;1.60;;
77726;SDS011;68312;53.502;10.030;2023-05-29T01:39:03;11.57;;;1.80;;
77726;SDS011;68312;53.502;10.030;2023-05-29T01:41:30;8.65;;;1.77;;
77726;SDS011;68312;53.502;10.030;2023-05-29T01:43:58;7.97;;;1.65;;
77726;SDS011;68312;53.502;10.030;2023-05-29T01:46:27;10.50;;;1.50;;
77726;SDS011;68312;53.502;10.030;2023-05-29T01:48:53;13.45;;;2.42;;
77726;SDS011;68312;53.502;10.030;2023-05-29T01:51:19;7.22;;;2.00;;
77726;SDS011;68312;53.502;10.030;2023-05-29T01:53:44;10.60;;;2.38;;
77726;SDS011;68312;53.502;10.030;2023-05-29T01:56:10;14.18;;;1.73;;
77726;SDS011;68312;53.502;10.030;2023-05-29T01:58:36;10.77;;;1.90;;
77726;SDS011;68312;53.502;10.030;2023-05-29T02:01:04;10.40;;;1.92;;
77726;SDS011;68312;53.502;10.030;2023-05-29T02:03:33;8.45;;;1.75;;
77726;SDS011;68312;53.502;10.030;2023-05-29T02:05:59;8.73;;;1.83;;
77726;SDS011;68312;53.502;10.030;2023-05-29T02:08:26;8.07;;;1.65;;
77726;SDS011;68312;53.502;10.030;2023-05-29T02:10:52;8.93;;;1.63;;
77726;SDS011;68312;53.502;10.030;2023-05-29T02:13:18;11.93;;;2.45;;
77726;SDS011;68312;53.502;10.030;2023-05-29T02:15:44;10.88;;;1.80;;
77726;SDS011;68312;53.502;10.030;2023-05-29T02:18:14;13.60;;;2.00;;
77726;SDS011;68312;53.502;10.030;2023-05-29T02:20:41;13.23;;;2.53;;
77726;SDS011;68312;53.502;10.030;2023-05-29T02:23:09;8.38;;;1.90;;
77726;SDS011;68312;53.502;10.030;2023-05-29T02:25:35;9.25;;;1.90;;
77726;SDS011;68312;53.502;10.030;2023-05-29T02:28:01;8.68;;;1.95;;
77726;SDS011;68312;53.502;10.030;2023-05-29T02:30:28;10.80;;;2.30;;
77726;SDS011;68312;53.502;10.030;2023-05-29T02:32:55;13.55;;;2.92;;
77726;SDS011;68312;53.502;10.030;2023-05-29T02:35:21;13.35;;;3.30;;
77726;SDS011;68312;53.502;10.030;2023-05-29T02:37:46;11.90;;;2.30;;
77726;SDS011;68312;53.502;10.030;2023-05-29T02:40:12;17.50;;;4.20;;
77726;SDS011;68312;53.502;10.030;2023-05-29T02:42:40;15.90;;;3.33;;
77726;SDS011;68312;53.502;10.030;2023-05-29T02:45:06;19.38;;;6.25;;
77726;SDS011;68312;53.502;10.030;2023-05-29T02:47:32;16.75;;;3.20;;
77726;SDS011;68312;53.502;10.030;2023-05-29T02:49:57;14.88;;;3.75;;
77726;SDS011;68312;53.502;10.030;2023-05-29T02:52:23;10.82;;;2.10;;
77726;SDS011;68312;53.502;10.030;2023-05-29T02:54:49;15.48;;;2.13;;
77726;SDS011;68312;53.502;10.030;2023-05-29T02:57:14;13.05;;;2.63;;
77726;SDS011;68312;53.502;10.030;2023-05-29T02:59:40;14.57;;;2.75;;
77726;SDS011;68312;53.502;10.030;2023-05-29T03:02:05;14.02;;;2.22;;
77726;SDS011;68312;53.502;10.030;2023-05-29T03:04:31;10.63;;;2.20;;
77726;SDS011;68312;53.502;10.030;2023-05-29T03:06:57;9.20;;;2.35;;
77726;SDS011;68312;53.502;10.030;2023-05-29T03:09:22;16.00;;;4.43;;
77726;SDS011;68312;53.502;10.030;2023-05-29T03:11:48;13.63;;;2.65;;
77726;SDS011;68312;53.502;10.030;2023-05-29T03:14:14;11.27;;;2.25;;
77726;SDS011;68312;53.502;10.030;2023-05-29T03:16:40;8.05;;;2.03;;
77726;SDS011;68312;53.502;10.030;2023-05-29T03:19:05;11.48;;;1.75;;
77726;SDS011;68312;53.502;10.030;2023-05-29T03:21:32;7.95;;;2.58;;
77726;SDS011;68312;53.502;10.030;2023-05-29T03:23:59;8.77;;;1.67;;
77726;SDS011;68312;53.502;10.030;2023-05-29T03:26:24;8.93;;;1.90;;
77726;SDS011;68312;53.502;10.030;2023-05-29T03:28:50;19.05;;;2.55;;
77726;SDS011;68312;53.502;10.030;2023-05-29T03:31:15;10.02;;;2.08;;
77726;SDS011;68312;53.502;10.030;2023-05-29T03:33:41;6.40;;;1.63;;
77726;SDS011;68312;53.502;10.030;2023-05-29T03:36:06;13.63;;;2.20;;
77726;SDS011;68312;53.502;10.030;2023-05-29T03:38:32;12.02;;;2.42;;
77726;SDS011;68312;53.502;10.030;2023-05-29T03:40:58;8.30;;;1.90;;
77726;SDS011;68312;53.502;10.030;2023-05-29T03:43:23;6.70;;;2.22;;
77726;SDS011;68312;53.502;10.030;2023-05-29T03:45:49;9.45;;;2.13;;
77726;SDS011;68312;53.502;10.030;2023-05-29T03:48:14;8.40;;;1.40;;
77726;SDS011;68312;53.502;10.030;2023-05-29T03:50:40;11.80;;;1.52;;
77726;SDS011;68312;53.502;10.030;2023-05-29T03:53:06;12.48;;;2.08;;
77726;SDS011;68312;53.502;10.030;2023-05-29T03:55:31;12.50;;;2.22;;
77726;SDS011;68312;53.502;10.030;2023-05-29T03:57:57;12.52;;;2.38;;
77726;SDS011;68312;53.502;10.030;2023-05-29T04:00:22;13.95;;;2.28;;
77726;SDS011;68312;53.502;10.030;2023-05-29T04:02:48;12.43;;;2.47;;
77726;SDS011;68312;53.502;10.030;2023-05-29T04:05:13;23.77;;;7.35;;
77726;SDS011;68312;53.502;10.030;2023-05-29T04:07:39;23.17;;;4.18;;
77726;SDS011;68312;53.502;10.030;2023-05-29T04:10:05;18.63;;;4.00;;
77726;SDS011;68312;53.502;10.030;2023-05-29T04:12:32;13.93;;;3.28;;
77726;SDS011;68312;53.502;10.030;2023-05-29T04:14:58;15.57;;;2.58;;
77726;SDS011;68312;53.502;10.030;2023-05-29T04:17:24;20.60;;;3.22;;
77726;SDS011;68312;53.502;10.030;2023-05-29T04:19:50;17.40;;;1.85;;
77726;SDS011;68312;53.502;10.030;2023-05-29T04:22:15;11.93;;;1.67;;
77726;SDS011;68312;53.502;10.030;2023-05-29T04:24:41;10.18;;;2.13;;
77726;SDS011;68312;53.502;10.030;2023-05-29T04:27:07;16.58;;;2.40;;
77726;SDS011;68312;53.502;10.030;2023-05-29T04:29:36;21.35;;;3.42;;
77726;SDS011;68312;53.502;10.030;2023-05-29T04:32:01;12.20;;;2.25;;
77726;SDS011;68312;53.502;10.030;2023-05-29T04:34:27;21.25;;;3.38;;
77726;SDS011;68312;53.502;10.030;2023-05-29T04:36:52;11.23;;;2.65;;
77726;SDS011;68312;53.502;10.030;2023-05-29T04:39:18;22.98;;;5.75;;
77726;SDS011;68312;53.502;10.030;2023-05-29T04:41:43;13.98;;;2.55;;
77726;SDS011;68312;53.502;10.030;2023-05-29T04:44:12;16.55;;;4.30;;
77726;SDS011;68312;53.502;10.030;2023-05-29T04:46:37;32.03;;;7.25;;
77726;SDS011;68312;53.502;10.030;2023-05-29T04:49:03;29.60;;;7.00;;
77726;SDS011;68312;53.502;10.030;2023-05-29T04:51:28;25.02;;;7.07;;
77726;SDS011;68312;53.502;10.030;2023-05-29T04:53:54;15.15;;;3.83;;
77726;SDS011;68312;53.502;10.030;2023-05-29T04:56:19;24.42;;;5.00;;
77726;SDS011;68312;53.502;10.030;2023-05-29T04:58:44;19.27;;;4.10;;
77726;SDS011;68312;53.502;10.030;2023-05-29T05:01:10;17.15;;;3.70;;
77726;SDS011;68312;53.502;10.030;2023-05-29T05:03:35;17.48;;;4.55;;
77726;SDS011;68312;53.502;10.030;2023-05-29T05:06:01;15.48;;;3.22;;
77726;SDS011;68312;53.502;10.030;2023-05-29T05:08:27;19.48;;;4.45;;
77726;SDS011;68312;53.502;10.030;2023-05-29T05:10:54;21.65;;;5.50;;
77726;SDS011;68312;53.502;10.030;2023-05-29T05:13:20;20.02;;;5.90;;
77726;SDS011;68312;53.502;10.030;2023-05-29T05:15:45;22.63;;;5.03;;
77726;SDS011;68312;53.502;10.030;2023-05-29T05:18:11;10.90;;;1.90;;
77726;SDS011;68312;53.502;10.030;2023-05-29T05:20:36;11.05;;;2.00;;
77726;SDS011;68312;53.502;10.030;2023-05-29T05:23:02;10.85;;;2.20;;
77726;SDS011;68312;53.502;10.030;2023-05-29T05:25:27;9.80;;;1.90;;
77726;SDS011;68312;53.502;10.030;2023-05-29T05:27:53;11.02;;;2.38;;
77726;SDS011;68312;53.502;10.030;2023-05-29T05:30:18;14.73;;;2.05;;
77726;SDS011;68312;53.502;10.030;2023-05-29T05:32:44;13.75;;;2.20;;
77726;SDS011;68312;53.502;10.030;2023-05-29T05:35:09;10.98;;;2.22;;
77726;SDS011;68312;53.502;10.030;2023-05-29T05:37:35;7.00;;;1.73;;
77726;SDS011;68312;53.502;10.030;2023-05-29T05:40:00;13.95;;;2.28;;
77726;SDS011;68312;53.502;10.030;2023-05-29T05:42:26;13.25;;;2.13;;
77726;SDS011;68312;53.502;10.030;2023-05-29T05:44:52;9.05;;;2.10;;
77726;SDS011;68312;53.502;10.030;2023-05-29T05:47:17;8.60;;;1.80;;
77726;SDS011;68312;53.502;10.030;2023-05-29T05:49:43;16.23;;;2.50;;
77726;SDS011;68312;53.502;10.030;2023-05-29T05:52:08;12.93;;;2.65;;
77726;SDS011;68312;53.502;10.030;2023-05-29T05:54:34;19.75;;;2.30;;
77726;SDS011;68312;53.502;10.030;2023-05-29T05:57:00;8.88;;;1.65;;
77726;SDS011;68312;53.502;10.030;2023-05-29T05:59:25;17.08;;;2.40;;
77726;SDS011;68312;53.502;10.030;2023-05-29T06:01:51;16.00;;;1.55;;
77726;SDS011;68312;53.502;10.030;2023-05-29T06:04:16;13.55;;;1.90;;
77726;SDS011;68312;53.502;10.030;2023-05-29T06:06:42;11.10;;;2.05;;
77726;SDS011;68312;53.502;10.030;2023-05-29T06:09:08;14.55;;;2.05;;
77726;SDS011;68312;53.502;10.030;2023-05-29T06:11:33;10.25;;;1.67;;
77726;SDS011;68312;53.502;10.030;2023-05-29T06:13:59;10.73;;;1.92;;
77726;SDS011;68312;53.502;10.030;2023-05-29T06:16:24;16.98;;;2.63;;
77726;SDS011;68312;53.502;10.030;2023-05-29T06:18:50;11.20;;;1.80;;
77726;SDS011;68312;53.502;10.030;2023-05-29T06:21:15;9.85;;;1.88;;
77726;SDS011;68312;53.502;10.030;2023-05-29T06:23:41;16.33;;;2.40;;
77726;SDS011;68312;53.502;10.030;2023-05-29T06:26:06;12.13;;;2.55;;
77726;SDS011;68312;53.502;10.030;2023-05-29T06:28:32;13.70;;;2.10;;
77726;SDS011;68312;53.502;10.030;2023-05-29T06:30:58;16.42;;;1.90;;
77726;SDS011;68312;53.502;10.030;2023-05-29T06:33:23;12.32;;;2.45;;
77726;SDS011;68312;53.502;10.030;2023-05-29T06:35:48;12.38;;;2.33;;
77726;SDS011;68312;53.502;10.030;2023-05-29T06:38:14;11.98;;;2.00;;
77726;SDS011;68312;53.502;10.030;2023-05-29T06:40:40;8.77;;;1.70;;
77726;SDS011;68312;53.502;10.030;2023-05-29T06:43:05;9.35;;;2.50;;
77726;SDS011;68312;53.502;10.030;2023-05-29T06:45:31;10.70;;;1.90;;
77726;SDS011;68312;53.502;10.030;2023-05-29T06:47:56;9.57;;;2.00;;
77726;SDS011;68312;53.502;10.030;2023-05-29T06:50:22;7.35;;;1.42;;
77726;SDS011;68312;53.502;10.030;2023-05-29T06:52:48;8.55;;;1.70;;
77726;SDS011;68312;53.502;10.030;2023-05-29T06:55:13;8.93;;;2.03;;
77726;SDS011;68312;53.502;10.030;2023-05-29T06:57:39;9.98;;;2.38;;
77726;SDS011;68312;53.502;10.030;2023-05-29T07:00:05;8.63;;;1.60;;
77726;SDS011;68312;53.502;10.030;2023-05-29T07:02:31;14.55;;;2.35;;
77726;SDS011;68312;53.502;10.030;2023-05-29T07:04:57;15.10;;;2.20;;
77726;SDS011;68312;53.502;10.030;2023-05-29T07:07:25;9.68;;;2.35;;
77726;SDS011;68312;53.502;10.030;2023-05-29T07:09:51;10.70;;;1.98;;
77726;SDS011;68312;53.502;10.030;2023-05-29T07:12:16;5.70;;;1.73;;
77726;SDS011;68312;53.502;10.030;2023-05-29T07:14:42;9.82;;;1.85;;
77726;SDS011;68312;53.502;10.030;2023-05-29T07:17:07;14.57;;;1.90;;
77726;SDS011;68312;53.502;10.030;2023-05-29T07:19:33;7.43;;;1.75;;
77726;SDS011;68312;53.502;10.030;2023-05-29T07:21:58;12.48;;;2.65;;
77726;SDS011;68312;53.502;10.030;2023-05-29T07:24:24;9.88;;;1.80;;
77726;SDS011;68312;53.502;10.030;2023-05-29T07:26:49;9.93;;;2.15;;
77726;SDS011;68312;53.502;10.030;2023-05-29T07:29:15;12.52;;;2.60;;
77726;SDS011;68312;53.502;10.030;2023-05-29T07:31:41;13.10;;;2.33;;
77726;SDS011;68312;53.502;10.030;2023-05-29T07:34:07;14.82;;;2.58;;
77726;SDS011;68312;53.502;10.030;2023-05-29T07:36:35;13.73;;;2.10;;
77726;SDS011;68312;53.502;10.030;2023-05-29T07:39:01;17.60;;;2.22;;
77726;SDS011;68312;53.502;10.030;2023-05-29T07:41:30;18.73;;;2.10;;
77726;SDS011;68312;53.502;10.030;2023-05-29T07:43:55;9.52;;;1.88;;
77726;SDS011;68312;53.502;10.030;2023-05-29T07:46:21;14.70;;;1.90;;
77726;SDS011;68312;53.502;10.030;2023-05-29T07:48:46;12.88;;;2.30;;
77726;SDS011;68312;53.502;10.030;2023-05-29T07:51:12;10.07;;;2.05;;
77726;SDS011;68312;53.502;10.030;2023-05-29T07:53:37;13.68;;;2.78;;
77726;SDS011;68312;53.502;10.030;2023-05-29T07:56:03;12.02;;;2.55;;
77726;SDS011;68312;53.502;10.030;2023-05-29T07:58:32;14.93;;;2.35;;
77726;SDS011;68312;53.502;10.030;2023-05-29T08:00:57;11.57;;;2.05;;
77726;SDS011;68312;53.502;10.030;2023-05-29T08:03:22;13.13;;;2.55;;
77726;SDS011;68312;53.502;10.030;2023-05-29T08:05:48;15.05;;;2.45;;
77726;SDS011;68312;53.502;10.030;2023-05-29T08:08:13;12.10;;;1.70;;
77726;SDS011;68312;53.502;10.030;2023-05-29T08:10:39;14.02;;;2.20;;
77726;SDS011;68312;53.502;10.030;2023-05-29T08:13:04;18.25;;;2.90;;
77726;SDS011;68312;53.502;10.030;2023-05-29T08:15:30;8.85;;;2.33;;
77726;SDS011;68312;53.502;10.030;2023-05-29T08:17:55;10.35;;;1.73;;
77726;SDS011;68312;53.502;10.030;2023-05-29T08:20:21;8.90;;;2.03;;
77726;SDS011;68312;53.502;10.030;2023-05-29T08:22:46;15.50;;;2.08;;
77726;SDS011;68312;53.502;10.030;2023-05-29T08:25:12;9.88;;;2.15;;
77726;SDS011;68312;53.502;10.030;2023-05-29T08:27:37;13.23;;;2.10;;
77726;SDS011;68312;53.502;10.030;2023-05-29T08:30:03;8.48;;;1.58;;
77726;SDS011;68312;53.502;10.030;2023-05-29T08:32:29;12.48;;;2.28;;
77726;SDS011;68312;53.502;10.030;2023-05-29T08:34:55;11.10;;;2.13;;
77726;SDS011;68312;53.502;10.030;2023-05-29T08:37:20;9.65;;;1.83;;
77726;SDS011;68312;53.502;10.030;2023-05-29T08:39:46;12.25;;;2.55;;
77726;SDS011;68312;53.502;10.030;2023-05-29T08:42:21;12.30;;;2.25;;
77726;SDS011;68312;53.502;10.030;2023-05-29T08:44:55;8.32;;;1.88;;
77726;SDS011;68312;53.502;10.030;2023-05-29T08:47:21;11.65;;;1.92;;
77726;SDS011;68312;53.502;10.030;2023-05-29T08:49:52;10.98;;;2.25;;
77726;SDS011;68312;53.502;10.030;2023-05-29T08:52:19;11.32;;;2.15;;
77726;SDS011;68312;53.502;10.030;2023-05-29T08:54:48;9.73;;;1.80;;
77726;SDS011;68312;53.502;10.030;2023-05-29T08:57:14;7.93;;;2.28;;
77726;SDS011;68312;53.502;10.030;2023-05-29T08:59:41;12.15;;;1.85;;
77726;SDS011;68312;53.502;10.030;2023-05-29T09:02:09;10.43;;;2.03;;
77726;SDS011;68312;53.502;10.030;2023-05-29T09:04:36;6.55;;;1.83;;
77726;SDS011;68312;53.502;10.030;2023-05-29T09:07:01;11.95;;;2.03;;
77726;SDS011;68312;53.502;10.030;2023-05-29T09:09:27;10.45;;;1.83;;
77726;SDS011;68312;53.502;10.030;2023-05-29T09:11:53;15.05;;;2.33;;
77726;SDS011;68312;53.502;10.030;2023-05-29T09:14:34;8.38;;;1.77;;
77726;SDS011;68312;53.502;10.030;2023-05-29T09:17:02;9.77;;;2.25;;
77726;SDS011;68312;53.502;10.030;2023-05-29T09:19:30;13.18;;;2.17;;
77726;SDS011;68312;53.502;10.030;2023-05-29T09:22:03;10.52;;;1.88;;
77726;SDS011;68312;53.502;10.030;2023-05-29T09:24:33;12.18;;;2.72;;
77726;SDS011;68312;53.502;10.030;2023-05-29T09:27:02;10.65;;;1.80;;
77726;SDS011;68312;53.502;10.030;2023-05-29T09:29:31;8.68;;;1.83;;
77726;SDS011;68312;53.502;10.030;2023-05-29T09:31:57;10.60;;;2.15;;
77726;SDS011;68312;53.502;10.030;2023-05-29T09:34:23;10.48;;;2.13;;
77726;SDS011;68312;53.502;10.030;2023-05-29T09:36:50;10.52;;;2.20;;
77726;SDS011;68312;53.502;10.030;2023-05-29T09:39:15;11.20;;;2.03;;
77726;SDS011;68312;53.502;10.030;2023-05-29T09:41:42;9.32;;;1.90;;
77726;SDS011;68312;53.502;10.030;2023-05-29T09:44:15;12.98;;;2.28;;
77726;SDS011;68312;53.502;10.030;2023-05-29T09:46:41;11.45;;;2.40;;
77726;SDS011;68312;53.502;10.030;2023-05-29T09:49:11;8.18;;;2.08;;
77726;SDS011;68312;53.502;10.030;2023-05-29T09:51:38;9.98;;;1.90;;
77726;SDS011;68312;53.502;10.030;2023-05-29T09:54:14;10.80;;;2.53;;
77726;SDS011;68312;53.502;10.030;2023-05-29T09:56:43;7.97;;;1.98;;
77726;SDS011;68312;53.502;10.030;2023-05-29T09:59:10;11.55;;;2.00;;
77726;SDS011;68312;53.502;10.030;2023-05-29T10:01:43;8.27;;;2.10;;
77726;SDS011;68312;53.502;10.030;2023-05-29T10:04:10;11.10;;;1.63;;
77726;SDS011;68312;53.502;10.030;2023-05-29T10:06:37;9.23;;;2.15;;
77726;SDS011;68312;53.502;10.030;2023-05-29T10:09:08;10.63;;;2.28;;
77726;SDS011;68312;53.502;10.030;2023-05-29T10:11:38;11.50;;;2.08;;
77726;SDS011;68312;53.502;10.030;2023-05-29T10:14:09;9.48;;;1.60;;
77726;SDS011;68312;53.502;10.030;2023-05-29T10:16:43;8.27;;;1.60;;
77726;SDS011;68312;53.502;10.030;2023-05-29T10:19:16;10.20;;;2.15;;
77726;SDS011;68312;53.502;10.030;2023-05-29T10:21:51;7.88;;;1.98;;
77726;SDS011;68312;53.502;10.030;2023-05-29T10:24:19;8.38;;;2.67;;
77726;SDS011;68312;53.502;10.030;2023-05-29T10:26:47;11.13;;;2.28;;
77726;SDS011;68312;53.502;10.030;2023-05-29T10:32:05;8.93;;;1.80;;
77726;SDS011;68312;53.502;10.030;2023-05-29T10:40:36;6.30;;;1.52;;
77726;SDS011;68312;53.502;10.030;2023-05-29T10:43:02;8.57;;;1.80;;
77726;SDS011;68312;53.502;10.030;2023-05-29T10:47:53;8.65;;;2.40;;
77726;SDS011;68312;53.502;10.030;2023-05-29T10:50:34;9.00;;;1.95;;
77726;SDS011;68312;53.502;10.030;2023-05-29T10:53:16;8.38;;;2.00;;
77726;SDS011;68312;53.502;10.030;2023-05-29T10:55:50;6.70;;;1.60;;
77726;SDS011;68312;53.502;10.030;2023-05-29T10:58:20;7.07;;;1.95;;
77726;SDS011;68312;53.502;10.030;2023-05-29T11:00:48;8.68;;;1.90;;
77726;SDS011;68312;53.502;10.030;2023-05-29T11:03:17;8.80;;;1.98;;
77726;SDS011;68312;53.502;10.030;2023-05-29T11:06:05;8.85;;;1.98;;
77726;SDS011;68312;53.502;10.030;2023-05-29T11:08:44;7.13;;;1.80;;
77726;SDS011;68312;53.502;10.030;2023-05-29T11:13:53;5.93;;;1.48;;
77726;SDS011;68312;53.502;10.030;2023-05-29T11:18:53;5.35;;;1.60;;
77726;SDS011;68312;53.502;10.030;2023-05-29T11:24:12;8.05;;;1.95;;
77726;SDS011;68312;53.502;10.030;2023-05-29T11:26:48;8.80;;;1.90;;
77726;SDS011;68312;53.502;10.030;2023-05-29T11:29:26;7.20;;;1.80;;
77726;SDS011;68312;53.502;10.030;2023-05-29T11:31:55;7.82;;;1.77;;
77726;SDS011;68312;53.502;10.030;2023-05-29T11:34:32;8.18;;;1.77;;
77726;SDS011;68312;53.502;10.030;2023-05-29T11:36:58;7.95;;;1.83;;
77726;SDS011;68312;53.502;10.030;2023-05-29T11:39:26;6.10;;;1.45;;
77726;SDS011;68312;53.502;10.030;2023-05-29T11:41:52;6.63;;;1.60;;
77726;SDS011;68312;53.502;10.030;2023-05-29T11:44:19;10.80;;;1.60;;
77726;SDS011;68312;53.502;10.030;2023-05-29T11:46:58;7.20;;;1.58;;
77726;SDS011;68312;53.502;10.030;2023-05-29T11:49:29;9.80;;;1.70;;
77726;SDS011;68312;53.502;10.030;2023-05-29T11:52:10;6.10;;;1.52;;
77726;SDS011;68312;53.502;10.030;2023-05-29T11:54:38;9.07;;;1.90;;
77726;SDS011;68312;53.502;10.030;2023-05-29T11:57:04;8.00;;;2.13;;
77726;SDS011;68312;53.502;10.030;2023-05-29T11:59:30;6.97;;;1.73;;
77726;SDS011;68312;53.502;10.030;2023-05-29T12:01:56;7.35;;;1.60;;
77726;SDS011;68312;53.502;10.030;2023-05-29T12:04:21;7.90;;;2.00;;
77726;SDS011;68312;53.502;10.030;2023-05-29T12:06:47;6.47;;;1.63;;
77726;SDS011;68312;53.502;10.030;2023-05-29T12:09:26;7.95;;;1.80;;
77726;SDS011;68312;53.502;10.030;2023-05-29T12:11:53;5.57;;;1.73;;
77726;SDS011;68312;53.502;10.030;2023-05-29T12:14:26;6.53;;;1.98;;
77726;SDS011;68312;53.502;10.030;2023-05-29T12:16:52;5.15;;;1.50;;
77726;SDS011;68312;53.502;10.030;2023-05-29T12:19:21;8.70;;;1.50;;
77726;SDS011;68312;53.502;10.030;2023-05-29T12:21:49;9.25;;;1.60;;
77726;SDS011;68312;53.502;10.030;2023-05-29T12:24:14;6.45;;;1.70;;
77726;SDS011;68312;53.502;10.030;2023-05-29T12:26:42;6.80;;;2.03;;
77726;SDS011;68312;53.502;10.030;2023-05-29T12:29:07;5.70;;;1.40;;
77726;SDS011;68312;53.502;10.030;2023-05-29T12:31:33;4.47;;;1.90;;
77726;SDS011;68312;53.502;10.030;2023-05-29T12:34:00;6.50;;;1.45;;
77726;SDS011;68312;53.502;10.030;2023-05-29T12:36:32;6.90;;;1.60;;
77726;SDS011;68312;53.502;10.030;2023-05-29T12:38:58;7.63;;;1.90;;
77726;SDS011;68312;53.502;10.030;2023-05-29T12:41:24;10.77;;;1.92;;
77726;SDS011;68312;53.502;10.030;2023-05-29T12:43:58;5.40;;;1.45;;
77726;SDS011;68312;53.502;10.030;2023-05-29T12:46:35;8.40;;;1.85;;
77726;SDS011;68312;53.502;10.030;2023-05-29T12:49:16;8.27;;;1.90;;
77726;SDS011;68312;53.502;10.030;2023-05-29T12:51:44;4.88;;;1.50;;
77726;SDS011;68312;53.502;10.030;2023-05-29T12:54:11;5.88;;;1.60;;
77726;SDS011;68312;53.502;10.030;2023-05-29T12:56:39;4.30;;;1.58;;
77726;SDS011;68312;53.502;10.030;2023-05-29T12:59:08;5.82;;;1.92;;
77726;SDS011;68312;53.502;10.030;2023-05-29T13:01:36;6.80;;;1.35;;
77726;SDS011;68312;53.502;10.030;2023-05-29T13:04:03;6.80;;;2.05;;
77726;SDS011;68312;53.502;10.030;2023-05-29T13:06:30;7.82;;;1.92;;
77726;SDS011;68312;53.502;10.030;2023-05-29T13:08:55;6.97;;;2.40;;
77726;SDS011;68312;53.502;10.030;2023-05-29T13:11:21;7.22;;;2.00;;
77726;SDS011;68312;53.502;10.030;2023-05-29T13:13:47;8.02;;;2.10;;
77726;SDS011;68312;53.502;10.030;2023-05-29T13:16:12;6.18;;;2.15;;
77726;SDS011;68312;53.502;10.030;2023-05-29T13:18:41;12.25;;;5.88;;
77726;SDS011;68312;53.502;10.030;2023-05-29T13:21:06;6.82;;;2.20;;
77726;SDS011;68312;53.502;10.030;2023-05-29T13:23:32;6.95;;;1.98;;
77726;SDS011;68312;53.502;10.030;2023-05-29T13:25:57;8.85;;;2.75;;
77726;SDS011;68312;53.502;10.030;2023-05-29T13:28:23;8.75;;;2.47;;
77726;SDS011;68312;53.502;10.030;2023-05-29T13:30:48;6.10;;;1.65;;
77726;SDS011;68312;53.502;10.030;2023-05-29T13:33:14;6.40;;;1.40;;
77726;SDS011;68312;53.502;10.030;2023-05-29T13:35:39;5.80;;;1.55;;
77726;SDS011;68312;53.502;10.030;2023-05-29T13:38:04;7.95;;;1.50;;
77726;SDS011;68312;53.502;10.030;2023-05-29T13:40:30;7.60;;;1.88;;
77726;SDS011;68312;53.502;10.030;2023-05-29T13:42:56;5.43;;;1.63;;
77726;SDS011;68312;53.502;10.030;2023-05-29T13:45:21;8.00;;;1.60;;
77726;SDS011;68312;53.502;10.030;2023-05-29T13:47:47;6.78;;;1.75;;
77726;SDS011;68312;53.502;10.030;2023-05-29T13:50:12;8.00;;;1.80;;
77726;SDS011;68312;53.502;10.030;2023-05-29T13:52:38;6.47;;;1.63;;
77726;SDS011;68312;53.502;10.030;2023-05-29T13:55:04;7.82;;;2.13;;
77726;SDS011;68312;53.502;10.030;2023-05-29T13:57:29;9.18;;;2.17;;
77726;SDS011;68312;53.502;10.030;2023-05-29T13:59:55;5.97;;;1.35;;
77726;SDS011;68312;53.502;10.030;2023-05-29T14:02:20;6.20;;;1.40;;
77726;SDS011;68312;53.502;10.030;2023-05-29T14:04:46;9.70;;;1.73;;
77726;SDS011;68312;53.502;10.030;2023-05-29T14:07:11;8.15;;;1.77;;
77726;SDS011;68312;53.502;10.030;2023-05-29T14:09:37;6.07;;;1.50;;
77726;SDS011;68312;53.502;10.030;2023-05-29T14:12:02;8.63;;;1.60;;
77726;SDS011;68312;53.502;10.030;2023-05-29T14:14:28;5.40;;;1.75;;
77726;SDS011;68312;53.502;10.030;2023-05-29T14:16:53;6.18;;;1.88;;
77726;SDS011;68312;53.502;10.030;2023-05-29T14:19:19;6.50;;;1.77;;
77726;SDS011;68312;53.502;10.030;2023-05-29T14:21:46;6.22;;;1.65;;
77726;SDS011;68312;53.502;10.030;2023-05-29T14:24:12;8.73;;;2.10;;
77726;SDS011;68312;53.502;10.030;2023-05-29T14:26:38;5.22;;;1.35;;
77726;SDS011;68312;53.502;10.030;2023-05-29T14:29:03;5.53;;;1.63;;
77726;SDS011;68312;53.502;10.030;2023-05-29T14:31:29;4.10;;;1.50;;
77726;SDS011;68312;53.502;10.030;2023-05-29T14:33:54;5.20;;;1.48;;
77726;SDS011;68312;53.502;10.030;2023-05-29T14:36:21;6.72;;;1.55;;
77726;SDS011;68312;53.502;10.030;2023-05-29T14:38:46;5.35;;;1.58;;
77726;SDS011;68312;53.502;10.030;2023-05-29T14:41:12;5.90;;;1.50;;
77726;SDS011;68312;53.502;10.030;2023-05-29T14:43:37;5.90;;;1.70;;
77726;SDS011;68312;53.502;10.030;2023-05-29T14:46:03;9.48;;;2.03;;
77726;SDS011;68312;53.502;10.030;2023-05-29T14:48:29;7.35;;;1.65;;
77726;SDS011;68312;53.502;10.030;2023-05-29T14:50:55;5.90;;;1.73;;
77726;SDS011;68312;53.502;10.030;2023-05-29T14:53:20;7.25;;;1.90;;